createdAt,value
2018-08-22T00:03:50.803Z,100809.02
2018-08-22T00:08:54.637Z,100803.47
2018-08-22T00:14:02.493Z,100799.70
2018-08-22T00:19:06.170Z,100792.45
2018-08-22T00:24:09.943Z,100792.13
2018-08-22T00:29:13.792Z,100788.58
2018-08-22T00:34:17.547Z,100784.09
2018-08-22T00:39:21.236Z,100782.39
2018-08-22T00:44:25.042Z,100786.94
2018-08-22T00:49:28.847Z,100780.91
2018-08-22T00:54:32.713Z,100767.32
2018-08-22T00:59:36.507Z,100774.22
2018-08-22T01:04:40.299Z,100770.42
2018-08-22T01:09:44.063Z,100766.16
2018-08-22T01:14:47.843Z,100776.73
2018-08-22T01:19:51.629Z,100770.98
2018-08-22T01:24:55.477Z,100772.33
2018-08-22T01:29:59.269Z,100772.72
2018-08-22T01:35:08.137Z,100768.81
2018-08-22T01:40:11.870Z,100763.91
2018-08-22T01:45:15.742Z,100762.98
2018-08-22T01:50:19.556Z,100757.58
2018-08-22T01:55:23.436Z,100756.34
2018-08-22T02:00:27.257Z,100749.58
2018-08-22T02:05:31.076Z,100747.38
2018-08-22T02:10:34.874Z,100751.22
2018-08-22T02:15:38.597Z,100747.94
2018-08-22T02:20:42.362Z,100737.39
2018-08-22T02:25:46.357Z,100741.23
2018-08-22T02:30:50.140Z,100741.50
2018-08-22T02:35:53.916Z,100739.55
2018-08-22T02:40:58.139Z,100739.97
2018-08-22T02:46:01.890Z,100734.84
2018-08-22T02:51:05.642Z,100732.03
2018-08-22T02:56:09.429Z,100735.02
2018-08-22T03:01:13.221Z,100728.91
2018-08-22T03:06:16.951Z,100730.85
2018-08-22T03:11:20.832Z,100731.48
2018-08-22T03:16:25.613Z,100735.78
2018-08-22T03:21:29.410Z,100730.52
2018-08-22T03:26:33.259Z,100729.31
2018-08-22T03:31:36.975Z,100724.38
2018-08-22T03:36:40.784Z,100721.67
2018-08-22T03:41:44.558Z,100726.61
2018-08-22T03:46:48.360Z,100721.73
2018-08-22T03:51:52.144Z,100723.05
2018-08-22T03:56:55.874Z,100727.41
2018-08-22T04:01:59.727Z,100730.23
2018-08-22T04:07:03.502Z,100734.05
2018-08-22T04:12:07.303Z,100732.87
2018-08-22T04:17:11.079Z,100740.45
2018-08-22T04:22:14.858Z,100747.02
2018-08-22T04:27:18.684Z,100749.16
2018-08-22T04:32:22.686Z,100746.55
2018-08-22T04:37:26.509Z,100749.99
2018-08-22T04:42:30.278Z,100753.95
2018-08-22T04:47:33.975Z,100757.20
2018-08-22T04:52:37.860Z,100758.84
2018-08-22T04:57:41.550Z,100753.77
2018-08-22T05:02:45.294Z,100753.48
2018-08-22T05:07:49.100Z,100758.36
2018-08-22T05:12:52.963Z,100747.93
2018-08-22T05:17:57.016Z,100749.56
2018-08-22T05:23:00.811Z,100752.00
2018-08-22T05:28:04.643Z,100748.36
2018-08-22T05:33:08.443Z,100753.17
2018-08-22T05:38:12.239Z,100746.59
2018-08-22T05:43:16.007Z,100742.37
2018-08-22T05:48:19.766Z,100739.61
2018-08-22T05:53:23.454Z,100739.50
2018-08-22T05:58:27.140Z,100744.81
2018-08-22T06:03:31.031Z,100738.37
2018-08-22T06:08:34.716Z,100739.92
2018-08-22T06:13:38.440Z,100739.16
2018-08-22T06:18:42.154Z,100733.22
2018-08-22T06:23:45.885Z,100731.73
2018-08-22T06:28:49.641Z,100732.11
2018-08-22T06:33:53.576Z,100729.94
2018-08-22T06:38:57.391Z,100723.56
2018-08-22T06:44:01.204Z,100723.10
2018-08-22T06:49:05.018Z,100715.33
2018-08-22T06:54:08.761Z,100714.63
2018-08-22T06:59:12.458Z,100712.63
2018-08-22T07:04:16.222Z,100707.50
2018-08-22T07:09:20.013Z,100705.88
2018-08-22T07:14:23.774Z,100710.27
2018-08-22T07:19:27.525Z,100706.44
2018-08-22T07:24:31.331Z,100699.66
2018-08-22T07:29:34.961Z,100696.45
2018-08-22T07:34:38.570Z,100687.78
2018-08-22T07:39:42.259Z,100686.68
2018-08-22T07:44:45.886Z,100689.16
2018-08-22T07:49:49.542Z,100684.03
2018-08-22T07:54:53.211Z,100680.09
2018-08-22T07:59:56.860Z,100679.75
2018-08-22T08:05:00.580Z,100673.31
2018-08-22T08:10:07.480Z,100672.92
2018-08-22T08:15:11.102Z,100671.08
2018-08-22T08:20:14.686Z,100664.02
2018-08-22T08:25:18.342Z,100662.84
2018-08-22T08:30:22.013Z,100668.59
2018-08-22T08:35:25.637Z,100660.64
2018-08-22T08:40:29.320Z,100656.95
2018-08-22T08:45:33.042Z,100645.27
2018-08-22T08:50:36.734Z,100646.20
2018-08-22T08:55:40.397Z,100641.11
2018-08-22T09:00:43.999Z,100627.23
2018-08-22T09:05:47.685Z,100625.27
2018-08-22T09:10:51.449Z,100617.21
2018-08-22T09:15:55.043Z,100618.92
2018-08-22T09:20:58.789Z,100615.47
2018-08-22T09:26:02.513Z,100602.97
2018-08-22T09:31:06.160Z,100601.12
2018-08-22T09:36:09.866Z,100602.66
2018-08-22T09:41:13.489Z,100599.63
2018-08-22T09:46:17.880Z,100589.00
2018-08-22T09:51:21.550Z,100587.16
2018-08-22T09:56:25.208Z,100575.86
2018-08-22T10:01:34.038Z,100576.45
2018-08-22T10:06:43.377Z,100574.52
2018-08-22T10:11:47.044Z,100566.16
2018-08-22T10:16:51.144Z,100565.30
2018-08-22T10:21:54.810Z,100557.64
2018-08-22T10:26:58.454Z,100545.83
2018-08-22T10:32:02.188Z,100541.43
2018-08-22T10:37:05.839Z,100543.33
2018-08-22T10:42:09.526Z,100545.17
2018-08-22T10:47:13.186Z,100532.47
2018-08-22T10:52:16.984Z,100522.88
2018-08-22T10:57:20.676Z,100526.93
2018-08-22T11:02:24.316Z,100520.18
2018-08-22T11:07:28.030Z,100515.78
2018-08-22T11:12:31.672Z,100514.08
2018-08-22T11:17:36.267Z,100508.38
2018-08-22T11:22:51.126Z,100512.29
2018-08-22T11:28:06.040Z,100501.37
2018-08-22T11:33:20.694Z,100503.08
2018-08-22T11:38:24.341Z,100504.28
2018-08-22T11:43:28.041Z,100499.68
2018-08-22T11:48:31.674Z,100492.19
2018-08-22T11:53:35.298Z,100499.44
2018-08-22T11:58:39.009Z,100503.28
2018-08-22T12:03:42.646Z,100502.99
2018-08-22T12:08:46.413Z,100489.48
2018-08-22T12:13:50.120Z,100488.58
2018-08-22T12:18:53.842Z,100483.53
2018-08-22T12:23:57.463Z,100485.58
2018-08-22T12:29:01.258Z,100473.08
2018-08-22T12:34:05.010Z,100470.38
2018-08-22T12:39:08.766Z,100465.53
2018-08-22T12:44:12.599Z,100454.67
2018-08-22T12:49:16.271Z,100443.45
2018-08-22T12:54:19.913Z,100441.95
2018-08-22T12:59:23.580Z,100432.84
2018-08-22T13:04:27.263Z,100428.84
2018-08-22T13:09:30.955Z,100420.39
2018-08-22T13:14:34.614Z,100421.24
2018-08-22T13:19:38.277Z,100412.73
2018-08-22T13:24:41.951Z,100408.17
2018-08-22T13:29:45.834Z,100403.34
2018-08-22T13:34:49.860Z,100401.57
2018-08-22T13:39:53.527Z,100391.61
2018-08-22T13:44:57.169Z,100382.35
2018-08-22T13:50:01.039Z,100388.56
2018-08-22T13:55:05.402Z,100378.22
2018-08-22T14:00:10.444Z,100372.74
2018-08-22T14:05:14.387Z,100368.61
2018-08-22T14:10:18.355Z,100370.00
2018-08-22T14:15:22.206Z,100368.23
2018-08-22T14:20:25.950Z,100359.16
2018-08-22T14:25:29.619Z,100360.92
2018-08-22T14:30:33.249Z,100364.63
2018-08-22T14:35:36.974Z,100356.02
2018-08-22T14:40:41.162Z,100352.66
2018-08-22T14:45:44.917Z,100350.16
2018-08-22T14:50:48.562Z,100340.19
2018-08-22T14:55:52.439Z,100344.09
2018-08-22T15:00:56.146Z,100334.12
2018-08-22T15:05:59.807Z,100333.19
2018-08-22T15:11:03.482Z,100327.47
2018-08-22T15:16:07.145Z,100323.25
2018-08-22T15:21:10.837Z,100319.27
2018-08-22T15:26:14.542Z,100313.39
2018-08-22T15:31:18.576Z,100310.63
2018-08-22T15:36:23.075Z,100306.94
2018-08-22T15:41:26.829Z,100304.81
2018-08-22T15:46:31.205Z,100296.19
2018-08-22T15:51:35.130Z,100299.06
2018-08-22T15:56:40.554Z,100289.30
2018-08-22T16:01:45.320Z,100283.09
2018-08-22T16:07:10.459Z,100279.95
2018-08-22T16:12:14.246Z,100269.00
2018-08-22T16:17:17.978Z,100265.16
2018-08-22T16:22:21.699Z,100259.24
2018-08-22T16:27:25.330Z,100256.03
2018-08-22T16:32:28.999Z,100252.66
2018-08-22T16:37:32.698Z,100246.00
2018-08-22T16:42:38.255Z,100244.13
2018-08-22T16:47:42.541Z,100239.56
2018-08-22T16:52:46.449Z,100241.73
2018-08-22T16:57:50.810Z,100243.70
2018-08-22T17:02:54.615Z,100241.50
2018-08-22T17:07:59.045Z,100241.95
2018-08-22T17:13:02.815Z,100242.33
2018-08-22T17:18:06.484Z,100243.30
2018-08-22T17:23:10.160Z,100245.74
2018-08-22T17:28:13.931Z,100241.53
2018-08-22T17:33:18.854Z,100240.68
2018-08-22T17:38:22.828Z,100243.04
2018-08-22T17:43:26.650Z,100234.92
2018-08-22T17:48:30.445Z,100241.16
2018-08-22T17:53:34.047Z,100241.32
2018-08-22T17:58:37.695Z,100248.21
2018-08-22T18:03:42.093Z,100248.53
2018-08-22T18:08:45.858Z,100249.94
2018-08-22T18:13:49.776Z,100253.75
2018-08-22T18:18:53.934Z,100251.98
2018-08-22T18:24:00.050Z,100262.16
2018-08-22T18:29:08.006Z,100262.13
2018-08-22T18:34:11.646Z,100264.31
2018-08-22T18:39:16.155Z,100268.08
2018-08-22T18:44:19.859Z,100284.25
2018-08-22T18:49:23.567Z,100276.48
2018-08-22T18:54:27.320Z,100282.69
2018-08-22T18:59:31.010Z,100279.38
2018-08-22T19:04:34.764Z,100279.48
2018-08-22T19:09:38.622Z,100285.11
2018-08-22T19:14:48.331Z,100278.88
2018-08-22T19:19:52.273Z,100277.52
2018-08-22T19:25:07.607Z,100281.30
2018-08-22T19:30:11.447Z,100271.50
2018-08-22T19:35:15.024Z,100271.52
2018-08-22T19:40:18.779Z,100278.89
2018-08-22T19:45:22.432Z,100274.91
2018-08-22T19:50:26.208Z,100276.93
2018-08-22T19:55:30.543Z,100267.97
2018-08-22T20:00:34.418Z,100271.17
2018-08-22T20:05:54.864Z,100276.61
2018-08-22T20:10:59.058Z,100281.17
2018-08-22T20:16:02.737Z,100281.65
2018-08-22T20:21:06.432Z,100280.96
2018-08-22T20:26:10.092Z,100275.46
2018-08-22T20:31:13.871Z,100277.89
2018-08-22T20:36:17.621Z,100274.40
2018-08-22T20:41:22.727Z,100273.55
2018-08-22T20:46:26.318Z,100271.35
2018-08-22T20:51:31.649Z,100265.41
2018-08-22T20:56:35.766Z,100264.25
2018-08-22T21:01:39.478Z,100264.71
2018-08-22T21:06:43.073Z,100258.42
2018-08-22T21:11:46.796Z,100262.42
2018-08-22T21:16:50.475Z,100263.39
2018-08-22T21:21:54.102Z,100262.55
2018-08-22T21:26:57.713Z,100266.10
2018-08-22T21:32:01.289Z,100263.45
2018-08-22T21:37:15.176Z,100265.66
2018-08-22T21:42:25.069Z,100265.75
2018-08-22T21:47:30.906Z,100261.34
2018-08-22T21:52:52.709Z,100254.94
2018-08-22T21:57:56.386Z,100250.79
2018-08-22T22:03:00.121Z,100238.66
2018-08-22T22:13:21.888Z,100250.50
2018-08-22T22:18:25.536Z,100247.52
2018-08-22T22:23:29.230Z,100243.80
2018-08-22T22:28:39.084Z,100242.48
2018-08-22T22:33:47.738Z,100236.23
2018-08-22T22:38:51.387Z,100243.84
2018-08-22T22:43:55.060Z,100238.24
2018-08-22T22:48:58.778Z,100232.14
2018-08-22T22:54:02.383Z,100229.03
2018-08-22T22:59:06.295Z,100233.00
2018-08-22T23:04:10.033Z,100233.33
2018-08-22T23:09:13.659Z,100224.95
2018-08-22T23:14:17.318Z,100226.83
2018-08-22T23:19:21.036Z,100217.84
2018-08-22T23:24:24.702Z,100214.77
2018-08-22T23:29:28.371Z,100210.02
2018-08-22T23:34:32.098Z,100203.61
2018-08-22T23:39:35.754Z,100207.13
2018-08-22T23:44:43.704Z,100202.63
2018-08-22T23:49:47.303Z,100201.59
2018-08-22T23:54:51.006Z,100201.55
2018-08-22T23:59:54.651Z,100193.72
